createdAt,value
2023-02-22T00:00:42.427Z,12.23
2023-02-22T00:03:16.231Z,12.00
2023-02-22T00:05:44.023Z,13.38
2023-02-22T00:08:11.481Z,11.45
2023-02-22T00:10:38.422Z,12.55
2023-02-22T00:13:08.267Z,11.50
2023-02-22T00:15:36.241Z,11.80
2023-02-22T00:18:04.484Z,12.10
2023-02-22T00:20:31.229Z,10.70
2023-02-22T00:22:58.241Z,12.38
2023-02-22T00:25:25.606Z,12.50
2023-02-22T00:27:52.510Z,13.30
2023-02-22T00:30:22.689Z,14.02
2023-02-22T00:32:50.273Z,12.52
2023-02-22T00:35:18.915Z,13.27
2023-02-22T00:37:48.175Z,15.27
2023-02-22T00:40:17.358Z,14.13
2023-02-22T00:42:44.207Z,14.90
2023-02-22T00:45:10.938Z,13.80
2023-02-22T00:47:39.028Z,14.80
2023-02-22T00:50:06.235Z,14.40
2023-02-22T00:52:32.959Z,15.32
2023-02-22T00:54:59.690Z,16.10
2023-02-22T00:57:26.418Z,14.13
2023-02-22T00:59:53.205Z,16.52
2023-02-22T01:02:20.379Z,15.57
2023-02-22T01:04:48.659Z,15.98
2023-02-22T01:07:15.616Z,15.05
2023-02-22T01:09:42.356Z,16.63
2023-02-22T01:12:09.117Z,16.80
2023-02-22T01:14:35.869Z,14.55
2023-02-22T01:17:02.670Z,13.27
2023-02-22T01:19:29.549Z,15.63
2023-02-22T01:21:58.760Z,15.15
2023-02-22T01:24:25.504Z,17.55
2023-02-22T01:26:52.845Z,16.08
2023-02-22T01:29:20.272Z,16.58
2023-02-22T01:31:52.716Z,15.80
2023-02-22T01:34:19.608Z,14.93
2023-02-22T01:36:46.375Z,16.02
2023-02-22T01:39:14.713Z,16.65
2023-02-22T01:41:41.454Z,16.73
2023-02-22T01:44:20.375Z,15.00
2023-02-22T01:49:15.144Z,15.40
2023-02-22T01:51:46.005Z,15.63
2023-02-22T01:54:17.695Z,16.65
2023-02-22T01:56:48.554Z,15.60
2023-02-22T01:59:15.526Z,14.38
2023-02-22T02:01:42.962Z,16.58
2023-02-22T02:04:12.729Z,15.48
2023-02-22T02:06:40.184Z,14.68
2023-02-22T02:09:12.244Z,16.17
2023-02-22T02:11:41.607Z,17.35
2023-02-22T02:14:10.304Z,15.23
2023-02-22T02:16:41.799Z,15.57
2023-02-22T02:19:14.778Z,16.92
2023-02-22T02:22:15.096Z,12.43
2023-02-22T02:25:11.901Z,16.08
2023-02-22T02:27:57.914Z,14.40
2023-02-22T02:30:54.751Z,14.70
2023-02-22T02:33:29.559Z,15.57
2023-02-22T02:36:01.693Z,16.75
2023-02-22T02:38:34.890Z,14.95
2023-02-22T02:41:08.510Z,15.05
2023-02-22T02:43:40.422Z,13.70
2023-02-22T02:46:12.150Z,15.07
2023-02-22T02:48:45.096Z,16.23
2023-02-22T02:51:13.202Z,15.05
2023-02-22T02:53:44.595Z,16.43
2023-02-22T02:56:11.450Z,16.75
2023-02-22T02:58:45.698Z,16.33
2023-02-22T03:01:15.313Z,16.77
2023-02-22T03:03:58.436Z,14.93
2023-02-22T03:06:51.334Z,16.15
2023-02-22T03:09:30.339Z,16.08
2023-02-22T03:14:37.551Z,15.70
2023-02-22T03:17:12.042Z,16.48
2023-02-22T03:19:46.866Z,15.90
2023-02-22T03:22:20.623Z,14.05
2023-02-22T03:24:53.566Z,17.65
2023-02-22T03:27:24.708Z,16.95
2023-02-22T03:29:54.764Z,15.63
2023-02-22T03:32:27.748Z,16.70
2023-02-22T03:35:01.158Z,17.38
2023-02-22T03:37:31.668Z,16.55
2023-02-22T03:40:01.629Z,16.38
2023-02-22T03:42:33.619Z,18.17
2023-02-22T03:45:02.658Z,15.68
2023-02-22T03:50:04.628Z,15.00
2023-02-22T03:52:31.477Z,14.48
2023-02-22T03:54:58.243Z,16.85
2023-02-22T03:57:28.574Z,19.08
2023-02-22T03:59:55.640Z,17.05
2023-02-22T04:02:22.342Z,16.95
2023-02-22T04:04:49.541Z,18.23
2023-02-22T04:07:17.836Z,17.63
2023-02-22T04:09:44.602Z,16.33
2023-02-22T04:12:11.324Z,17.13
2023-02-22T04:14:38.065Z,15.30
2023-02-22T04:17:04.833Z,17.15
2023-02-22T04:19:31.603Z,16.27
2023-02-22T04:21:58.407Z,19.40
2023-02-22T04:24:26.509Z,18.10
2023-02-22T04:26:53.616Z,17.37
2023-02-22T04:29:20.361Z,15.93
2023-02-22T04:31:47.363Z,14.85
2023-02-22T04:34:14.126Z,18.02
2023-02-22T04:36:40.987Z,15.77
2023-02-22T04:39:07.712Z,17.95
2023-02-22T04:41:35.808Z,14.90
2023-02-22T04:44:03.034Z,18.30
2023-02-22T04:46:29.881Z,15.20
2023-02-22T04:48:57.156Z,18.75
2023-02-22T04:51:24.016Z,16.33
2023-02-22T04:53:50.760Z,18.55
2023-02-22T04:56:17.847Z,17.98
2023-02-22T04:58:45.929Z,19.90
2023-02-22T05:01:12.968Z,19.63
2023-02-22T05:03:42.036Z,18.13
2023-02-22T05:08:35.685Z,18.65
2023-02-22T05:11:02.431Z,18.83
2023-02-22T05:13:29.190Z,19.25
2023-02-22T05:15:57.347Z,19.45
2023-02-22T05:18:24.122Z,18.95
2023-02-22T05:20:52.086Z,16.75
2023-02-22T05:23:18.870Z,18.42
2023-02-22T05:25:45.615Z,14.43
2023-02-22T05:28:14.411Z,18.67
2023-02-22T05:30:41.491Z,18.83
2023-02-22T05:33:10.113Z,16.38
2023-02-22T05:35:37.663Z,18.17
2023-02-22T05:38:04.908Z,18.77
2023-02-22T05:40:31.887Z,18.88
2023-02-22T05:42:59.344Z,20.23
2023-02-22T05:45:27.773Z,15.32
2023-02-22T05:47:54.852Z,18.35
2023-02-22T05:50:23.326Z,15.80
2023-02-22T05:52:50.416Z,16.98
2023-02-22T05:55:20.872Z,15.07
2023-02-22T05:57:47.740Z,14.32
2023-02-22T06:00:18.260Z,14.57
2023-02-22T06:02:45.121Z,18.83
2023-02-22T06:05:12.116Z,16.70
2023-02-22T06:07:40.563Z,20.02
2023-02-22T06:10:07.648Z,15.65
2023-02-22T06:12:34.507Z,16.75
2023-02-22T06:15:01.344Z,19.10
2023-02-22T06:17:28.084Z,16.25
2023-02-22T06:19:54.833Z,19.17
2023-02-22T06:22:21.620Z,14.63
2023-02-22T06:24:49.693Z,16.02
2023-02-22T06:27:16.506Z,12.77
2023-02-22T06:29:45.336Z,14.05
2023-02-22T06:32:12.112Z,14.57
2023-02-22T06:34:39.017Z,16.55
2023-02-22T06:37:05.736Z,17.55
2023-02-22T06:39:32.500Z,17.75
2023-02-22T06:42:00.670Z,18.35
2023-02-22T06:44:27.476Z,15.70
2023-02-22T06:46:54.215Z,17.27
2023-02-22T06:49:21.003Z,15.52
2023-02-22T06:51:48.086Z,15.43
2023-02-22T06:54:15.141Z,17.77
2023-02-22T06:56:42.322Z,15.35
2023-02-22T06:59:10.465Z,16.50
2023-02-22T07:01:37.486Z,16.63
2023-02-22T07:04:04.262Z,18.10
2023-02-22T07:06:31.033Z,18.52
2023-02-22T07:08:57.836Z,17.58
2023-02-22T07:11:24.614Z,15.25
2023-02-22T07:13:51.413Z,18.75
2023-02-22T07:16:19.659Z,17.08
2023-02-22T07:18:46.545Z,15.68
2023-02-22T07:21:13.391Z,17.13
2023-02-22T07:23:40.132Z,17.20
2023-02-22T07:26:06.875Z,18.25
2023-02-22T07:28:33.612Z,18.65
2023-02-22T07:31:00.325Z,17.92
2023-02-22T07:33:28.688Z,16.35
2023-02-22T07:35:55.455Z,16.85
2023-02-22T07:38:22.201Z,19.08
2023-02-22T07:40:48.977Z,17.60
2023-02-22T07:43:17.284Z,19.10
2023-02-22T07:45:44.349Z,19.73
2023-02-22T07:48:12.150Z,18.10
2023-02-22T07:50:40.972Z,16.85
2023-02-22T07:53:11.834Z,14.32
2023-02-22T07:55:38.666Z,18.63
2023-02-22T07:58:06.889Z,16.13
2023-02-22T08:00:36.353Z,17.95
2023-02-22T08:03:05.361Z,18.92
2023-02-22T08:08:01.535Z,15.73
2023-02-22T08:10:29.879Z,15.90
2023-02-22T08:12:56.808Z,18.67
2023-02-22T08:15:25.487Z,15.68
2023-02-22T08:17:52.495Z,16.60
2023-02-22T08:20:19.576Z,18.98
2023-02-22T08:22:46.835Z,17.48
2023-02-22T08:25:15.882Z,18.52
2023-02-22T08:27:42.977Z,20.40
2023-02-22T08:30:15.797Z,19.25
2023-02-22T08:32:43.113Z,18.17
2023-02-22T08:35:09.878Z,14.98
2023-02-22T08:37:36.625Z,19.75
2023-02-22T08:40:03.712Z,17.23
2023-02-22T08:42:33.925Z,19.00
2023-02-22T08:45:02.195Z,19.13
2023-02-22T08:47:29.479Z,18.52
2023-02-22T08:49:56.724Z,17.30
2023-02-22T08:52:23.440Z,21.05
2023-02-22T08:54:50.348Z,19.17
2023-02-22T08:57:17.057Z,15.90
2023-02-22T08:59:45.132Z,19.80
2023-02-22T09:02:15.663Z,17.63
2023-02-22T09:04:42.717Z,17.52
2023-02-22T09:07:09.639Z,19.60
2023-02-22T09:09:36.402Z,17.88
2023-02-22T09:12:04.105Z,18.52
2023-02-22T09:14:30.838Z,19.95
2023-02-22T09:16:58.939Z,19.08
2023-02-22T09:19:25.741Z,18.13
2023-02-22T09:21:53.502Z,18.13
2023-02-22T09:24:20.214Z,18.02
2023-02-22T09:26:47.930Z,18.50
2023-02-22T09:29:14.642Z,16.83
2023-02-22T09:31:41.968Z,17.00
2023-02-22T09:34:10.114Z,15.10
2023-02-22T09:36:36.925Z,17.33
2023-02-22T09:39:03.738Z,17.40
2023-02-22T09:41:36.180Z,18.13
2023-02-22T09:44:16.418Z,17.85
2023-02-22T09:46:45.599Z,19.17
2023-02-22T09:49:22.998Z,17.95
2023-02-22T09:51:57.078Z,16.65
2023-02-22T09:54:28.557Z,16.40
2023-02-22T09:56:58.077Z,16.63
2023-02-22T09:59:29.641Z,16.05
2023-02-22T10:02:02.576Z,17.70
2023-02-22T10:04:40.895Z,18.88
2023-02-22T10:07:16.914Z,17.40
2023-02-22T10:09:45.295Z,15.85
2023-02-22T10:12:23.356Z,17.35
2023-02-22T10:15:23.354Z,17.33
2023-02-22T10:17:59.044Z,16.52
2023-02-22T10:20:43.694Z,17.90
2023-02-22T10:23:19.805Z,16.15
2023-02-22T10:25:53.541Z,15.02
2023-02-22T10:28:24.513Z,16.95
2023-02-22T10:30:54.583Z,16.40
2023-02-22T10:33:23.101Z,15.05
2023-02-22T10:35:52.423Z,15.95
2023-02-22T10:38:21.514Z,16.70
2023-02-22T10:40:52.906Z,16.83
2023-02-22T10:43:19.729Z,18.15
2023-02-22T10:45:46.714Z,17.08
2023-02-22T10:48:17.549Z,16.17
2023-02-22T10:50:46.521Z,17.25
2023-02-22T10:56:09.948Z,15.93
2023-02-22T10:58:44.643Z,15.82
2023-02-22T11:01:33.514Z,15.80
2023-02-22T11:04:08.814Z,14.85
2023-02-22T11:06:37.189Z,15.45
2023-02-22T11:09:13.223Z,15.55
2023-02-22T11:11:43.090Z,15.38
2023-02-22T11:14:13.646Z,15.32
2023-02-22T11:16:43.104Z,14.50
2023-02-22T11:19:19.187Z,15.23
2023-02-22T11:21:46.366Z,13.55
2023-02-22T11:26:45.825Z,15.35
2023-02-22T11:29:19.572Z,15.40
2023-02-22T11:31:47.341Z,17.42
2023-02-22T11:34:33.285Z,15.18
2023-02-22T11:37:16.443Z,16.13
2023-02-22T11:39:45.205Z,15.98
2023-02-22T11:42:21.422Z,16.83
2023-02-22T11:44:48.250Z,16.20
2023-02-22T11:47:15.232Z,17.25
2023-02-22T11:49:43.945Z,15.27
2023-02-22T11:52:20.363Z,14.05
2023-02-22T11:55:11.723Z,16.48
2023-02-22T11:57:55.536Z,16.73
2023-02-22T12:00:29.822Z,15.05
2023-02-22T12:03:23.073Z,14.70
2023-02-22T12:06:04.328Z,15.43
2023-02-22T12:08:41.211Z,13.52
2023-02-22T12:11:17.130Z,14.45
2023-02-22T12:14:03.998Z,13.63
2023-02-22T12:16:39.105Z,13.70
2023-02-22T12:19:14.681Z,14.73
2023-02-22T12:21:47.225Z,14.85
2023-02-22T12:24:18.622Z,14.40
2023-02-22T12:26:51.740Z,12.80
2023-02-22T12:29:24.648Z,13.75
2023-02-22T12:31:58.557Z,13.70
2023-02-22T12:34:31.237Z,13.35
2023-02-22T12:37:06.411Z,13.43
2023-02-22T12:39:53.190Z,14.45
2023-02-22T12:42:27.921Z,14.27
2023-02-22T12:44:58.058Z,12.38
2023-02-22T12:47:32.696Z,13.00
2023-02-22T12:50:04.984Z,12.88
2023-02-22T12:52:42.869Z,13.02
2023-02-22T12:55:14.616Z,12.63
2023-02-22T12:57:48.617Z,12.07
2023-02-22T13:00:20.017Z,12.50
2023-02-22T13:02:56.342Z,12.55
2023-02-22T13:05:24.248Z,13.80
2023-02-22T13:08:02.332Z,13.18
2023-02-22T13:10:45.270Z,11.93
2023-02-22T13:13:18.807Z,12.35
2023-02-22T13:15:53.129Z,11.82
2023-02-22T13:18:26.249Z,12.93
2023-02-22T13:20:58.006Z,13.32
2023-02-22T13:23:34.830Z,13.73
2023-02-22T13:26:09.269Z,13.45
2023-02-22T13:28:44.323Z,13.82
2023-02-22T13:31:22.808Z,13.70
2023-02-22T13:34:01.230Z,14.50
2023-02-22T13:36:37.086Z,15.25
2023-02-22T13:39:32.177Z,13.70
2023-02-22T13:42:20.755Z,14.70
2023-02-22T13:45:19.870Z,14.52
2023-02-22T13:48:07.146Z,14.20
2023-02-22T13:50:51.271Z,16.25
2023-02-22T13:53:24.718Z,15.55
2023-02-22T13:55:54.524Z,14.00
2023-02-22T13:58:21.342Z,13.80
2023-02-22T14:00:51.864Z,13.02
2023-02-22T14:03:38.000Z,14.05
2023-02-22T14:06:06.439Z,14.55
2023-02-22T14:08:42.001Z,12.77
2023-02-22T14:11:44.569Z,14.23
2023-02-22T14:14:14.240Z,15.35
2023-02-22T14:16:42.590Z,15.35
2023-02-22T14:19:16.482Z,13.80
2023-02-22T14:21:58.743Z,14.18
2023-02-22T14:24:25.781Z,15.15
2023-02-22T14:26:59.316Z,14.55
2023-02-22T14:29:26.311Z,13.60
2023-02-22T14:32:06.448Z,11.85
2023-02-22T14:34:46.756Z,13.68
2023-02-22T14:37:16.950Z,11.73
2023-02-22T14:39:46.576Z,12.38
2023-02-22T14:42:18.992Z,13.25
2023-02-22T14:44:56.643Z,11.88
2023-02-22T14:47:28.298Z,13.75
2023-02-22T14:50:03.098Z,12.82
2023-02-22T14:52:32.682Z,12.93
2023-02-22T14:55:07.083Z,13.05
2023-02-22T14:57:46.093Z,12.65
2023-02-22T15:00:16.801Z,12.77
2023-02-22T15:02:46.531Z,13.60
2023-02-22T15:05:14.377Z,13.30
2023-02-22T15:07:51.320Z,12.75
2023-02-22T15:10:22.759Z,14.60
2023-02-22T15:12:55.021Z,14.13
2023-02-22T15:15:23.513Z,13.73
2023-02-22T15:17:55.426Z,13.88
2023-02-22T15:20:24.263Z,14.88
2023-02-22T15:22:52.033Z,13.25
2023-02-22T15:25:27.417Z,14.63
2023-02-22T15:27:59.881Z,16.40
2023-02-22T15:30:28.364Z,15.90
2023-02-22T15:33:03.983Z,17.17
2023-02-22T15:35:32.758Z,14.38
2023-02-22T15:38:01.554Z,17.10
2023-02-22T15:42:55.498Z,13.40
2023-02-22T15:45:23.942Z,17.35
2023-02-22T15:47:52.326Z,18.75
2023-02-22T15:50:23.765Z,16.65
2023-02-22T15:52:54.237Z,17.63
2023-02-22T15:55:25.540Z,17.95
2023-02-22T15:57:54.271Z,17.15
2023-02-22T16:00:23.948Z,18.08
2023-02-22T16:02:51.653Z,20.30
2023-02-22T16:05:18.828Z,18.10
2023-02-22T16:07:50.195Z,16.08
2023-02-22T16:10:22.661Z,17.17
2023-02-22T16:12:49.625Z,17.15
2023-02-22T16:15:18.669Z,15.45
2023-02-22T16:20:34.019Z,18.73
2023-02-22T16:23:22.682Z,19.75
2023-02-22T16:26:05.900Z,17.75
2023-02-22T16:28:32.932Z,17.63
2023-02-22T16:31:00.686Z,19.17
2023-02-22T16:33:27.919Z,19.77
2023-02-22T16:35:54.671Z,20.30
2023-02-22T16:38:23.585Z,16.63
2023-02-22T16:43:20.366Z,18.98
2023-02-22T16:45:47.221Z,19.45
2023-02-22T16:48:17.121Z,21.52
2023-02-22T16:50:44.050Z,17.88
2023-02-22T16:53:11.037Z,18.13
2023-02-22T16:55:42.674Z,20.60
2023-02-22T16:58:09.667Z,19.85
2023-02-22T17:00:36.664Z,19.48
2023-02-22T17:03:04.848Z,21.23
2023-02-22T17:05:32.664Z,21.60
2023-02-22T17:07:59.692Z,20.83
2023-02-22T17:10:26.457Z,20.20
2023-02-22T17:12:55.851Z,19.38
2023-02-22T17:15:25.452Z,21.42
2023-02-22T17:17:53.435Z,20.35
2023-02-22T17:20:20.685Z,22.17
2023-02-22T17:22:47.906Z,21.52
2023-02-22T17:25:21.367Z,20.58
2023-02-22T17:27:48.357Z,22.42
2023-02-22T17:30:17.153Z,19.38
2023-02-22T17:32:44.065Z,19.25
2023-02-22T17:35:10.811Z,19.40
2023-02-22T17:37:37.542Z,20.20
2023-02-22T17:40:04.536Z,22.27
2023-02-22T17:42:31.268Z,24.40
2023-02-22T17:44:58.018Z,20.88
2023-02-22T17:47:26.188Z,23.45
2023-02-22T17:49:53.016Z,24.30
2023-02-22T17:52:19.807Z,21.77
2023-02-22T17:54:46.524Z,22.67
2023-02-22T17:57:13.272Z,18.70
2023-02-22T17:59:40.664Z,22.73
2023-02-22T18:02:08.162Z,23.55
2023-02-22T18:04:36.319Z,24.92
2023-02-22T18:07:03.116Z,27.13
2023-02-22T18:09:30.065Z,27.45
2023-02-22T18:11:56.798Z,26.52
2023-02-22T18:14:23.707Z,32.53
2023-02-22T18:16:50.414Z,31.65
2023-02-22T18:19:17.158Z,30.38
2023-02-22T18:21:45.276Z,34.63
2023-02-22T18:24:12.176Z,34.63
2023-02-22T18:26:39.241Z,33.47
2023-02-22T18:29:06.693Z,36.83
2023-02-22T18:31:33.498Z,37.88
2023-02-22T18:34:00.267Z,36.67
2023-02-22T18:36:27.023Z,36.00
2023-02-22T18:38:55.448Z,40.95
2023-02-22T18:41:24.076Z,41.75
2023-02-22T18:43:51.136Z,42.08
2023-02-22T18:46:20.368Z,41.72
2023-02-22T18:48:48.583Z,37.88
2023-02-22T18:51:17.023Z,31.88
2023-02-22T18:53:47.130Z,37.63
2023-02-22T18:56:17.861Z,40.20
2023-02-22T18:58:44.754Z,41.17
2023-02-22T19:01:16.149Z,42.08
2023-02-22T19:03:43.803Z,44.17
2023-02-22T19:06:10.708Z,42.22
2023-02-22T19:08:40.285Z,41.17
2023-02-22T19:11:08.634Z,37.85
2023-02-22T19:13:37.142Z,42.53
2023-02-22T19:16:05.681Z,42.70
2023-02-22T19:18:33.015Z,39.08
2023-02-22T19:21:01.212Z,38.10
2023-02-22T19:23:28.021Z,41.95
2023-02-22T19:25:54.858Z,41.72
2023-02-22T19:28:21.630Z,41.05
2023-02-22T19:30:49.730Z,41.83
2023-02-22T19:33:16.456Z,41.97
2023-02-22T19:35:45.632Z,40.45
2023-02-22T19:38:12.391Z,41.03
2023-02-22T19:40:39.158Z,42.47
2023-02-22T19:43:05.946Z,43.25
2023-02-22T19:45:32.849Z,41.05
2023-02-22T19:48:00.953Z,41.53
2023-02-22T19:50:27.731Z,43.47
2023-02-22T19:52:54.452Z,43.05
2023-02-22T19:55:21.302Z,43.30
2023-02-22T19:57:48.068Z,42.47
2023-02-22T20:00:15.497Z,44.33
2023-02-22T20:02:42.317Z,45.03
2023-02-22T20:05:11.732Z,45.45
2023-02-22T20:07:38.753Z,45.33
2023-02-22T20:10:06.233Z,42.53
2023-02-22T20:12:33.396Z,44.42
2023-02-22T20:15:00.191Z,42.13
2023-02-22T20:17:27.508Z,41.17
2023-02-22T20:19:54.456Z,42.40
2023-02-22T20:22:22.719Z,37.13
2023-02-22T20:24:49.554Z,43.08
2023-02-22T20:27:16.624Z,42.33
2023-02-22T20:29:43.387Z,39.75
2023-02-22T20:32:12.853Z,32.33
2023-02-22T20:34:40.418Z,39.65
2023-02-22T20:37:07.148Z,39.88
2023-02-22T20:39:36.235Z,30.33
2023-02-22T20:42:03.021Z,38.55
2023-02-22T20:44:29.753Z,36.75
2023-02-22T20:46:56.516Z,39.10
2023-02-22T20:49:23.281Z,39.20
2023-02-22T20:51:50.017Z,39.22
2023-02-22T20:54:17.245Z,38.45
2023-02-22T20:56:47.495Z,34.95
2023-02-22T20:59:15.998Z,34.20
2023-02-22T21:01:43.213Z,30.25
2023-02-22T21:04:11.264Z,38.15
2023-02-22T21:06:41.321Z,35.17
2023-02-22T21:09:12.261Z,37.22
2023-02-22T21:11:39.111Z,39.88
2023-02-22T21:14:07.512Z,41.08
2023-02-22T21:16:35.976Z,41.80
2023-02-22T21:19:05.227Z,32.20
2023-02-22T21:21:36.680Z,37.10
2023-02-22T21:24:03.577Z,38.33
2023-02-22T21:26:32.841Z,39.67
2023-02-22T21:29:01.619Z,35.72
2023-02-22T21:31:30.034Z,38.00
2023-02-22T21:33:58.079Z,38.78
2023-02-22T21:36:26.016Z,30.58
2023-02-22T21:38:55.215Z,39.80
2023-02-22T21:41:23.289Z,39.47
2023-02-22T21:43:51.662Z,38.20
2023-02-22T21:46:18.835Z,37.55
2023-02-22T21:48:47.197Z,38.28
2023-02-22T21:51:15.841Z,40.72
2023-02-22T21:53:44.507Z,38.10
2023-02-22T21:56:11.583Z,33.80
2023-02-22T21:58:38.329Z,38.67
2023-02-22T22:01:06.349Z,38.85
2023-02-22T22:03:33.427Z,39.10
2023-02-22T22:06:05.259Z,36.58
2023-02-22T22:08:32.001Z,37.10
2023-02-22T22:10:58.737Z,38.90
2023-02-22T22:13:26.716Z,38.03
2023-02-22T22:15:53.750Z,39.88
2023-02-22T22:18:20.482Z,39.70
2023-02-22T22:20:47.217Z,38.28
2023-02-22T22:23:15.321Z,37.20
2023-02-22T22:25:42.071Z,36.00
2023-02-22T22:28:10.276Z,38.40
2023-02-22T22:30:38.061Z,38.20
2023-02-22T22:33:05.060Z,36.72
2023-02-22T22:35:32.403Z,35.05
2023-02-22T22:37:59.550Z,38.97
2023-02-22T22:40:28.445Z,36.60
2023-02-22T22:42:55.184Z,32.65
2023-02-22T22:45:21.995Z,35.92
2023-02-22T22:47:48.737Z,34.97
2023-02-22T22:50:17.355Z,36.00
2023-02-22T22:52:44.406Z,34.70
2023-02-22T22:55:11.488Z,33.13
2023-02-22T22:57:40.543Z,39.63
2023-02-22T23:02:36.482Z,33.58
2023-02-22T23:05:03.451Z,36.45
2023-02-22T23:07:30.210Z,36.67
2023-02-22T23:09:56.925Z,36.90
2023-02-22T23:12:23.684Z,38.20
2023-02-22T23:14:51.880Z,34.80
2023-02-22T23:17:18.637Z,36.60
2023-02-22T23:19:45.431Z,36.08
2023-02-22T23:22:12.302Z,35.90
2023-02-22T23:24:39.403Z,37.38
2023-02-22T23:27:07.235Z,33.10
2023-02-22T23:29:36.342Z,34.05
2023-02-22T23:34:32.189Z,34.83
2023-02-22T23:36:58.965Z,34.17
2023-02-22T23:39:25.865Z,38.05
2023-02-22T23:41:53.794Z,34.80
2023-02-22T23:44:21.185Z,36.13
2023-02-22T23:46:50.840Z,35.65
2023-02-22T23:49:18.872Z,34.70
2023-02-22T23:51:46.154Z,37.10
2023-02-22T23:54:14.375Z,34.60
2023-02-22T23:56:42.373Z,35.10
2023-02-22T23:59:09.126Z,34.25
